{site.name} Logo

Login | Create Account

New Tampa, FL Single Family Real Estate Listings

581 Total Real Estate Listings * Click on table heading to sort
Date Posted Property Type Property Style Address Price Living Area Lot Size Price/Sq Ft.
2014-04-23 Single Family 8144 Tom Sawyer Dr Tampa, FL 33637 $134,900 1,478 sq. ft. 16,117 sq. ft. $91
2014-04-23 Single Family 1203 Hillandale Reserve Dr Tampa, FL 33613 $497,611 3,500 sq. ft. 10,890 sq. ft. $142
2014-04-22 Single Family 14902 Pinecrest Rd Tampa, FL 33613 $79,900 1,365 sq. ft. 6,098 sq. ft. $59
2014-04-22 Single Family 16009 Splitlog Dr Tampa, FL 33618 $149,900 1,420 sq. ft. 6,098 sq. ft. $106
2014-04-22 Single Family 8503 Tupelo Dr Tampa, FL 33637 $73,000 1,280 sq. ft. 6,970 sq. ft. $57
2014-04-22 Single Family Contemporary 10533 Coral Key Ave Tampa, FL 33647 $239,500 2,963 sq. ft. 5,663 sq. ft. $81
2014-04-21 Single Family 9112 Regents Park Dr Tampa, FL 33647 $235,000 2,520 sq. ft. 9,583 sq. ft. $93
2014-04-21 Single Family Contemporary 10232 Meadow Crossing Dr Tampa, FL 33647 $240,000 2,246 sq. ft. 8,712 sq. ft. $107
2014-04-21 Single Family 18113 Palm Breeze Dr Tampa, FL 33647 $215,000 1,962 sq. ft. 7,841 sq. ft. $110
2014-04-21 Single Family Ranch 13809 Shady Shores Dr Tampa, FL 33613 $319,900 2,112 sq. ft. 20,038 sq. ft. $151
2014-04-21 Single Family Ranch 19109 Autumn Woods Ave Tampa, FL 33647 $379,000 3,339 sq. ft. 12,197 sq. ft. $114
2014-04-21 Single Family Traditional 117 Siobhan Ave Tampa, FL 33613 $185,000 2,293 sq. ft. 10,454 sq. ft. $81
2014-04-21 Single Family Spanish/Mediterranean 17908 Arbor Greene Dr Tampa, FL 33647 $469,900 3,248 sq. ft. 22,651 sq. ft. $145
2014-04-21 Single Family Contemporary 10248 Estuary Dr Tampa, FL 33647 $399,817 3,483 sq. ft. 9,148 sq. ft. $115
2014-04-21 Single Family Contemporary 9118 Oak Pride Ct Tampa, FL 33647 $278,000 3,004 sq. ft. 6,098 sq. ft. $93
2014-04-21 Single Family 17748 Nathans Dr Tampa, FL 33647 $213,000 1,957 sq. ft. 7,405 sq. ft. $109
2014-04-21 Single Family Traditional 16021 Glen Haven Dr Tampa, FL 33618 $260,000 2,202 sq. ft. 8,276 sq. ft. $118
2014-04-21 Single Family 10746 Pictorial Park Dr Tampa, FL 33647 $259,900 2,944 sq. ft. 6,098 sq. ft. $88
2014-04-21 Single Family 18456 Eastwyck Dr Tampa, FL 33647 $370,000 3,074 sq. ft. 13,504 sq. ft. $120
2014-04-20 Single Family 6620 Thornton Palms Dr Tampa, FL 33647 $419,000 3,929 sq. ft. 14,810 sq. ft. $107
2014-04-19 Single Family 8012 Cypress Crossing Ct Tampa, FL 33647 $295,000 2,664 sq. ft. 10,019 sq. ft. $111
2014-04-19 Single Family Contemporary 9726 Little Pond Way Tampa, FL 33647 $179,500 1,550 sq. ft. 7,405 sq. ft. $116
2014-04-19 Single Family 9322 Deer Creek Dr Tampa, FL 33647 $429,000 3,120 sq. ft. 13,939 sq. ft. $138
2014-04-19 Single Family Colonial 19225 Pepper Grass Dr Tampa, FL 33647 $319,900 3,085 sq. ft. 8,276 sq. ft. $104
2014-04-18 Single Family Traditional 9316 Cypress Bend Dr Tampa, FL 33647 $370,000 2,865 sq. ft. 14,375 sq. ft. $129
2014-04-18 Single Family 16023 Penwood Dr Tampa, FL 33647 $325,000 2,302 sq. ft. 8,712 sq. ft. $141
2014-04-18 Single Family 16109 Ancroft Ct Tampa, FL 33647 $359,900 2,593 sq. ft. 11,761 sq. ft. $139
2014-04-18 Single Family 8415 Dunham Station Dr Tampa, FL 33647 $515,000 3,981 sq. ft. 10,454 sq. ft. $129
2014-04-18 Single Family Spanish/Mediterranean 18145 Longwater Run Dr Tampa, FL 33647 $1,800,000 6,350 sq. ft. 48,352 sq. ft. $283
2014-04-18 Single Family Contemporary 16146 Colchester Palms Dr Tampa, FL 33647 $312,600 3,257 sq. ft. 6,534 sq. ft. $96
2014-04-18 Single Family Contemporary 20405 Carolina Cherry Ct Tampa, FL 33647 $299,900 3,997 sq. ft. 6,098 sq. ft. $75
2014-04-18 Single Family Contemporary 20226 Still Wind Dr Tampa, FL 33647 $159,200 1,825 sq. ft. 7,405 sq. ft. $87
2014-04-18 Single Family Traditional 16014 Bella Woods Dr Tampa, FL 33647 $309,900 3,114 sq. ft. 4,792 sq. ft. $100
2014-04-18 Single Family 9212 Oak Pride Ct Tampa, FL 33647 $309,000 2,750 sq. ft. 6,098 sq. ft. $112
2014-04-18 Single Family 10430 Lucaya Dr Tampa, FL 33647 $209,900 2,041 sq. ft. 6,098 sq. ft. $103
2014-04-18 Single Family 108 Floral Dr Tampa, FL 33613 $110,000 1,229 sq. ft. 7,841 sq. ft. $90
2014-04-17 Single Family Florida 10505 Bermuda Isle Dr Tampa, FL 33647 $710,500 5,075 sq. ft. 13,068 sq. ft. $140
2014-04-17 Single Family 3004 Taragrove Dr Tampa, FL 33618 $229,000 1,979 sq. ft. 11,326 sq. ft. $116
2014-04-17 Single Family Traditional 16310 Armstrong Pl Tampa, FL 33647 $320,000 2,388 sq. ft. 9,148 sq. ft. $134
2014-04-17 Single Family Ranch 9539 Pebble Glen Ave Tampa, FL 33647 $197,000 2,082 sq. ft. 6,970 sq. ft. $95
2014-04-17 Single Family Contemporary 6420 Renwick Cir Tampa, FL 33647 $998,000 4,842 sq. ft. 18,295 sq. ft. $206
2014-04-17 Single Family Spanish/Mediterranean 3904 Floyd Rd Tampa, FL 33618 $567,000 3,069 sq. ft. 26,572 sq. ft. $185
2014-04-17 Single Family 20057 Heritage Point Dr Tampa, FL 33647 $184,000 1,538 sq. ft. 3,920 sq. ft. $120
2014-04-17 Single Family 904 Samy Dr Tampa, FL 33613 $119,900 1,562 sq. ft. 11,761 sq. ft. $77
2014-04-16 Single Family 19153 Dove Creek Dr Tampa, FL 33647 $300,000 2,483 sq. ft. 6,970 sq. ft. $121
2014-04-16 Single Family Contemporary 8525 Portage Ave Tampa, FL 33647 $329,900 2,549 sq. ft. 9,583 sq. ft. $129
2014-04-16 Single Family 5121 Sterling Manor Dr Tampa, FL 33647 $220,000 1,914 sq. ft. 5,227 sq. ft. $115
2014-04-16 Single Family 8612 Egret Point Ct Tampa, FL 33647 $219,900 1,990 sq. ft. 7,841 sq. ft. $111
2014-04-16 Single Family 19186 Lake Audubon Dr Tampa, FL 33647 $200,000 1,829 sq. ft. 7,841 sq. ft. $109
2014-04-16 Single Family 2011 Cape Bend Ave Tampa, FL 33613 $334,900 2,686 sq. ft. 15,682 sq. ft. $125
2014-04-16 Single Family Contemporary 18132 Bahama Bay Dr Tampa, FL 33647 $299,000 3,259 sq. ft. 7,841 sq. ft. $92
2014-04-15 Single Family Contemporary Tampa, FL 33647 $397,000 3,398 sq. ft. 8,712 sq. ft. $117
2014-04-15 Single Family Contemporary 14013 Lake Magdalene Blvd Tampa, FL 33618 $685,000 3,854 sq. ft. 50,530 sq. ft. $178
2014-04-15 Single Family 8302 Old Town Dr Tampa, FL 33647 $284,900 2,620 sq. ft. 13,939 sq. ft. $109
2014-04-15 Single Family Contemporary 19019 Dove Creek Dr Tampa, FL 33647 $257,000 2,038 sq. ft. 10,019 sq. ft. $126
2014-04-15 Single Family 8904 Hervel Cir Tampa, FL 33637 $99,000 2,179 sq. ft. 14,810 sq. ft. $45
2014-04-15 Single Family Traditional 16405 Shagbark Pl Tampa, FL 33618 $445,000 3,004 sq. ft. 43,560 sq. ft. $148
2014-04-14 Single Family Contemporary 11042 Ancient Futures Dr Tampa, FL 33647 $239,750 3,482 sq. ft. 6,098 sq. ft. $69
2014-04-14 Single Family Traditional 9462 Leatherwood Ave Tampa, FL 33647 $187,000 1,600 sq. ft. 6,970 sq. ft. $117
2014-04-14 Single Family Florida; Contemporary 10216 Quails Landing Ave Tampa, FL 33647 $279,000 2,334 sq. ft. 10,890 sq. ft. $120
2014-04-14 Single Family 19121 Sweet Clover Ln Tampa, FL 33647 $409,000 3,202 sq. ft. 11,761 sq. ft. $128
2014-04-14 Single Family Traditional 13316 Lake George Ln Tampa, FL 33618 $279,900 1,730 sq. ft. 11,326 sq. ft. $162
2014-04-14 Single Family Contemporary 8713 Hidden Green Ln Tampa, FL 33647 $309,000 2,695 sq. ft. 10,890 sq. ft. $115
2014-04-13 Single Family 20045 Oakflower Ave Tampa, FL 33647 $410,000 3,595 sq. ft. 7,405 sq. ft. $114
2014-04-12 Single Family Ranch 6317 Chauncy St Tampa, FL 33647 $235,000 2,123 sq. ft. 8,712 sq. ft. $111
2014-04-12 Single Family 10603 Mistflower Lane Tampa, FL 33647 $432,900 3,712 sq. ft. $117
2014-04-12 Single Family 20154 Heritage Point Dr Tampa, FL 33647 $314,000 3,432 sq. ft. 6,534 sq. ft. $91
2014-04-12 Single Family Ranch 3302 Hoedt Rd Tampa, FL 33618 $271,000 1,695 sq. ft. 21,780 sq. ft. $160
2014-04-11 Single Family Contemporary 18024 Malakai Isle Dr Tampa, FL 33647 $368,500 2,918 sq. ft. 8,276 sq. ft. $126
2014-04-11 Single Family 2832 Cedaridge Dr Tampa, FL 33618 $152,000 1,407 sq. ft. 4,792 sq. ft. $108
2014-04-11 Single Family 9210 Oak Pride Ct Tampa, FL 33647 $260,000 2,750 sq. ft. 7,405 sq. ft. $95
2014-04-11 Single Family Traditional 15702 Richboro Ct Tampa, FL 33647 $675,000 4,716 sq. ft. 16,553 sq. ft. $143
2014-04-11 Single Family Custom 4204 Wayside Willow Ct Tampa, FL 33618 $469,000 3,767 sq. ft. 20,038 sq. ft. $125
2014-04-11 Single Family 17810 Arbor Creek Dr Tampa, FL 33647 $429,900 3,210 sq. ft. 8,276 sq. ft. $134
2014-04-11 Single Family 9170 Highland Ridge Way Tampa, FL 33647 $519,900 3,568 sq. ft. 11,326 sq. ft. $146
2014-04-11 Single Family Contemporary 3113 Reseda Ct Tampa, FL 33618 $265,000 1,999 sq. ft. 8,712 sq. ft. $133
2014-04-11 Single Family Florida 9317 Deer Creek Dr Tampa, FL 33647 $395,000 3,141 sq. ft. 13,504 sq. ft. $126
2014-04-10 Single Family 20011 Heritage Point Dr Tampa, FL 33647 $212,900 1,795 sq. ft. 3,920 sq. ft. $119
2014-04-10 Single Family 13025 Whisper Sound Dr Tampa, FL 33618 $525,000 3,201 sq. ft. 27,007 sq. ft. $164
2014-04-10 Single Family Traditional 10108 Lake Cove Ln Tampa, FL 33618 $525,000 4,069 sq. ft. 16,988 sq. ft. $129
2014-04-10 Single Family Traditional 7964 Hampton Lake Dr Tampa, FL 33647 $322,000 2,984 sq. ft. 6,098 sq. ft. $108
2014-04-10 Single Family 13802 Cypress Village Cir Tampa, FL 33618 $375,000 2,636 sq. ft. 11,761 sq. ft. $142
2014-04-10 Single Family Contemporary 20222 Natures Spirit Dr Tampa, FL 33647 $349,000 2,732 sq. ft. 6,098 sq. ft. $128
2014-04-10 Single Family Ranch 909 Terra Mar Dr Tampa, FL 33613 $325,000 2,023 sq. ft. 16,117 sq. ft. $161
2014-04-10 Single Family Tampa, FL 33647 $284,500 3,464 sq. ft. 6,970 sq. ft. $82
2014-04-10 Single Family Contemporary 17211 Broadoak Dr Tampa, FL 33647 $816,000 4,685 sq. ft. 16,988 sq. ft. $174
2014-04-10 Single Family Contemporary 10224 Garden Alcove Dr Tampa, FL 33647 $309,000 2,727 sq. ft. 11,326 sq. ft. $113
2014-04-10 Single Family 15904 Farringham Dr Tampa, FL 33647 $279,900 1,963 sq. ft. 9,583 sq. ft. $143
2014-04-09 Single Family Contemporary 9309 Mandrake Ct Tampa, FL 33647 $250,000 2,719 sq. ft. 6,970 sq. ft. $92
2014-04-09 Single Family Florida; Traditional 20215 Regal Fern Ct Tampa, FL 33647 $439,900 3,956 sq. ft. 9,583 sq. ft. $111
2014-04-09 Single Family 8704 Bay Laurel Ct Tampa, FL 33647 $329,900 2,771 sq. ft. 13,068 sq. ft. $119
2014-04-09 Single Family Traditional 16313 Avila Blvd Tampa, FL 33613 $995,000 5,515 sq. ft. 32,670 sq. ft. $180
2014-04-09 Single Family 20133 Heron Crossing Dr Tampa, FL 33647 $199,000 2,367 sq. ft. 6,098 sq. ft. $84
2014-04-09 Single Family 11008 Tortola Isle Way Tampa, FL 33647 $279,990 2,887 sq. ft. 3,920 sq. ft. $97
2014-04-09 Single Family Spanish/Mediterranean 2626 Milford Berry Lane Tampa, FL 33618 $557,900 4,429 sq. ft. 6,534 sq. ft. $126
2014-04-09 Single Family 18527 Ambly Ln Tampa, FL 33647 $154,100 2,005 sq. ft. 7,405 sq. ft. $77
2014-04-09 Single Family Contemporary 20205 Heritage Point Dr Tampa, FL 33647 $239,900 2,105 sq. ft. 7,405 sq. ft. $114
2014-04-08 Single Family Contemporary 8516 Bramwell Way Tampa, FL 33647 $265,000 2,223 sq. ft. 10,454 sq. ft. $119
2014-04-08 Single Family Traditional 10812 Ancient Futures Dr Tampa, FL 33647 $315,000 3,321 sq. ft. 6,534 sq. ft. $95
2014-04-08 Single Family Contemporary 18136 Portside St Tampa, FL 33647 $139,900 1,473 sq. ft. 3,920 sq. ft. $95
2014-04-08 Single Family Contemporary 9317 Knightsbridge Ct Tampa, FL 33647 $309,900 2,541 sq. ft. 9,148 sq. ft. $122
2014-04-08 Single Family 1051 Sylvia Ln Tampa, FL 33613 $269,900 1,934 sq. ft. 11,326 sq. ft. $140
2014-04-08 Single Family Contemporary 17349 Emerald Chase Dr Tampa, FL 33647 $519,000 4,005 sq. ft. 16,553 sq. ft. $130
2014-04-08 Single Family 19955 Tamiami Ave Tampa, FL 33647 $250,000 3,600 sq. ft. 7,841 sq. ft. $69
2014-04-08 Single Family 20003 Satin Leaf Ave Tampa, FL 33647 $261,990 2,439 sq. ft. 5,663 sq. ft. $107
2014-04-07 Single Family Ranch 10808 Hubert Ave Tampa, FL 33618 $150,000 1,133 sq. ft. 10,019 sq. ft. $132
2014-04-07 Single Family Contemporary 19350 Water Maple Dr Tampa, FL 33647 $264,900 2,119 sq. ft. 7,841 sq. ft. $125
2014-04-07 Single Family Traditional 15115 Contoy Pl Tampa, FL 33618 $589,900 3,628 sq. ft. 12,632 sq. ft. $163
2014-04-07 Single Family Traditional 20658 Longleaf Pine Ave Tampa, FL 33647 $350,000 3,341 sq. ft. 10,019 sq. ft. $105
2014-04-07 Single Family Custom 6320 Maclaurin Dr Tampa, FL 33647 $3,500,000 13,189 sq. ft. 71,438 sq. ft. $265
2014-04-07 Single Family Contemporary 15903 Dawson Ridge Dr Tampa, FL 33647 $280,000 2,481 sq. ft. 10,890 sq. ft. $113
2014-04-07 Single Family Traditional 18135 Bahama Bay Dr Tampa, FL 33647 $275,000 2,404 sq. ft. 7,841 sq. ft. $114
2014-04-07 Single Family 13612 Westshire Dr Tampa, FL 33618 $269,000 1,725 sq. ft. 13,939 sq. ft. $156
2014-04-07 Single Family Traditional 17704 Long Ridge Rd Tampa, FL 33647 $259,900 2,301 sq. ft. 5,227 sq. ft. $113
2014-04-07 Single Family 8606 Chinaberry Dr Tampa, FL 33637 $69,900 1,124 sq. ft. 6,098 sq. ft. $62
2014-04-07 Single Family Ranch 19211 Dove Creek Dr Tampa, FL 33647 $309,000 2,532 sq. ft. 7,841 sq. ft. $122
2014-04-06 Single Family 18149 Portside St Tampa, FL 33647 $183,900 1,835 sq. ft. 4,792 sq. ft. $100
2014-04-06 Single Family 18509 Ambly Ln Tampa, FL 33647 $199,500 1,997 sq. ft. 6,970 sq. ft. $100
2014-04-05 Single Family Contemporary 9106 Rockrose Dr Tampa, FL 33647 $229,900 1,811 sq. ft. 7,841 sq. ft. $127
2014-04-05 Single Family 17727 Hampshire Oak Dr Tampa, FL 33647 $249,900 2,132 sq. ft. 7,405 sq. ft. $117
2014-04-05 Single Family Key West; Cape Cod 11327 Carrollwood Dr Tampa, FL 33618 $1,840,000 4,815 sq. ft. 30,056 sq. ft. $382
2014-04-04 Single Family Traditional 5004 Landstar Way Tampa, FL 33647 $650,000 3,165 sq. ft. 15,682 sq. ft. $205
2014-04-04 Single Family 10511 Carrollview Dr Tampa, FL 33618 $250,000 1,992 sq. ft. 10,890 sq. ft. $126
2014-04-04 Single Family 9418 Willow Cove Ct Tampa, FL 33647 $234,500 2,022 sq. ft. 4,356 sq. ft. $116
2014-04-04 Single Family Traditional 2235 Fletchers Point Cir Tampa, FL 33613 $86,900 1,148 sq. ft. 871 sq. ft. $76
2014-04-04 Single Family Contemporary 18306 Felspar Way Tampa, FL 33647 $189,900 1,872 sq. ft. 12,632 sq. ft. $101
2014-04-04 Single Family Contemporary 10104 Lake Cove Ln Tampa, FL 33618 $539,000 3,856 sq. ft. 10,890 sq. ft. $140
2014-04-03 Single Family 6611 Thornton Palms Dr Tampa, FL 33647 $389,500 3,070 sq. ft. 10,890 sq. ft. $127
2014-04-03 Single Family Contemporary 10332 Goldenbrook Way Tampa, FL 33647 $189,000 1,845 sq. ft. 6,098 sq. ft. $102
2014-04-03 Single Family Spanish/Mediterranean 10908 Cory Lake Dr Tampa, FL 33647 $300,000 2,900 sq. ft. 7,841 sq. ft. $103
2014-04-03 Single Family Ranch 11719 Plumosa Rd Tampa, FL 33618 $370,000 2,389 sq. ft. 11,761 sq. ft. $155
2014-04-03 Single Family Contemporary 18967 Wood Sage Dr Tampa, FL 33647 $229,000 1,975 sq. ft. 7,405 sq. ft. $116
2014-04-03 Single Family 8211 Canyon Creek Way Tampa, FL 33647 $304,900 2,567 sq. ft. 8,276 sq. ft. $119
2014-04-02 Single Family Contemporary 9220 Pine Island Ct Tampa, FL 33647 $529,900 3,780 sq. ft. 13,939 sq. ft. $140
2014-04-02 Single Family Ranch 8202 Whistling Pine Way Tampa, FL 33647 $225,000 1,838 sq. ft. 8,276 sq. ft. $122
2014-04-02 Single Family Other; Ranch 10106 Lake Cove Ln Tampa, FL 33618 $494,900 3,400 sq. ft. 11,326 sq. ft. $146
2014-04-02 Single Family 10814 Cory Lake Dr Tampa, FL 33647 $329,500 2,964 sq. ft. 9,583 sq. ft. $111
2014-04-02 Single Family 13909 Briardale Ln Tampa, FL 33618 $184,900 1,994 sq. ft. 10,454 sq. ft. $93
2014-04-02 Single Family Contemporary 18216 Brookpark Dr Tampa, FL 33647 $171,900 1,590 sq. ft. 5,663 sq. ft. $108
2014-04-02 Single Family 16134 Sandcrest Way Tampa, FL 33618 $123,600 1,324 sq. ft. 9,148 sq. ft. $93
2014-04-02 Single Family 10124 Woodsong Way Tampa, FL 33618 $434,900 2,620 sq. ft. 17,860 sq. ft. $166
2014-04-01 Single Family 9323 Wellington Park Cir Tampa, FL 33647 $299,900 2,598 sq. ft. 9,583 sq. ft. $115
2014-04-01 Single Family Florida 11060 Ancient Futures Dr Tampa, FL 33647 $294,900 3,478 sq. ft. 10,890 sq. ft. $85
2014-04-01 Single Family Florida 4508 Old Orchard Drive Tampa, FL 33618 $335,000 2,956 sq. ft. 14,810 sq. ft. $113
2014-04-01 Single Family Traditional; Tudor; Victorian 706 Guisando De Avila Tampa, FL 33613 $8,500,000 28,893 sq. ft. 257,004 sq. ft. $294
2014-04-01 Single Family Contemporary 10203 Estuary Dr Tampa, FL 33647 $409,000 3,175 sq. ft. 10,454 sq. ft. $129
2014-04-01 Single Family 20745 Great Laurel Ave Tampa, FL 33647 $209,900 1,905 sq. ft. 7,405 sq. ft. $110
2014-04-01 Single Family Contemporary 10520 Orange Grove Dr Tampa, FL 33618 $275,000 2,034 sq. ft. 9,148 sq. ft. $135
2014-03-31 Single Family Traditional 16405 Avila Blvd Tampa, FL 33613 $925,000 3,805 sq. ft. 22,651 sq. ft. $243
2014-03-31 Single Family Traditional Tampa, FL 33618 $288,000 2,219 sq. ft. 10,890 sq. ft. $130
2014-03-31 Single Family 16205 Copperfield Dr Tampa, FL 33618 $159,500 1,314 sq. ft. 6,534 sq. ft. $121
2014-03-31 Single Family Contemporary 16326 Heathrow Dr Tampa, FL 33647 $769,000 4,292 sq. ft. 10,890 sq. ft. $179
2014-03-30 Single Family 10109 Londonshire Ln Tampa, FL 33647 $315,000 2,780 sq. ft. 9,583 sq. ft. $113
2014-03-30 Single Family Ranch 13803 Supreme Pl Tampa, FL 33613 $184,900 1,548 sq. ft. 9,583 sq. ft. $119
2014-03-28 Single Family 5012 Southampton Cir Tampa, FL 33647 $335,000 2,392 sq. ft. 13,939 sq. ft. $140
2014-03-28 Single Family Contemporary; Florida 10229 Arbor Side Dr Tampa, FL 33647 $400,000 3,015 sq. ft. 10,019 sq. ft. $133
2014-03-28 Single Family Contemporary 8728 Ashworth Dr Tampa, FL 33647 $345,000 2,581 sq. ft. 16,553 sq. ft. $134
2014-03-28 Single Family Contemporary 19953 Tamiami Ave Tampa, FL 33647 $335,000 3,242 sq. ft. 7,841 sq. ft. $103
2014-03-27 Single Family 10436 Lucaya Dr Tampa, FL 33647 $209,900 2,041 sq. ft. 6,534 sq. ft. $103
2014-03-27 Single Family Contemporary 8107 Tom Sawyer Dr Tampa, FL 33637 $95,000 1,389 sq. ft. 6,098 sq. ft. $68
2014-03-26 Single Family 20422 Walnut Grove Lane Tampa, FL 33647 $399,000 3,530 sq. ft. 8,276 sq. ft. $113
2014-03-26 Single Family Spanish/Mediterranean 18026 Cozumel Isle Dr Tampa, FL 33647 $475,000 3,957 sq. ft. 9,148 sq. ft. $120
2014-03-26 Single Family 9913 Cypress Shadow Ave Tampa, FL 33647 $285,000 2,544 sq. ft. 10,890 sq. ft. $112
2014-03-25 Single Family Colonial; Spanish/Mediterranean 1061 Sylvia Lane Tampa, FL 33613 $543,251 3,950 sq. ft. 10,019 sq. ft. $138
2014-03-25 Single Family Florida 2235 Climbing Ivy Dr Tampa, FL 33618 $479,900 3,480 sq. ft. 11,761 sq. ft. $138
2014-03-25 Single Family Custom 1808 Bearss Ave Tampa, FL 33613 $1,250,000 5,589 sq. ft. 68,389 sq. ft. $224
2014-03-25 Single Family 810 Taray De Avila Tampa, FL 33613 $895,000 4,053 sq. ft. 28,314 sq. ft. $221
2014-03-24 Single Family 15007 Cancun Pl Tampa, FL 33618 $499,999 2,900 sq. ft. 10,890 sq. ft. $172
2014-03-24 Single Family 8369 Dunham Station Dr Tampa, FL 33647 $369,900 3,013 sq. ft. 12,632 sq. ft. $123
2014-03-24 Single Family Florida 9401 Oak Meadow Ct Tampa, FL 33647 $239,000 2,299 sq. ft. 6,098 sq. ft. $104
2014-03-24 Single Family 8750 Ashworth Dr Tampa, FL 33647 $324,900 2,456 sq. ft. 9,583 sq. ft. $132
2014-03-23 Single Family 20107 Fair Hill Way Tampa, FL 33647 $420,000 3,077 sq. ft. 10,890 sq. ft. $136
2014-03-22 Single Family 16504 Villespin De Avila Tampa, FL 33613 $925,000 4,950 sq. ft. 25,700 sq. ft. $187
2014-03-22 Single Family Florida 8113 Turkey Hill Ct Tampa, FL 33647 $230,000 2,092 sq. ft. 6,534 sq. ft. $110
2014-03-22 Single Family 18177 Sandy Pointe Dr Tampa, FL 33647 $210,000 2,410 sq. ft. 6,098 sq. ft. $87
2014-03-22 Single Family Spanish/Mediterranean 1105 Isobel Reserve Dr Tampa, FL 33613 $652,067 3,598 sq. ft. 13,068 sq. ft. $181
2014-03-22 Single Family Spanish/Mediterranean 1062 Sylvia Dr Tampa, FL 33613 $621,476 4,035 sq. ft. 14,375 sq. ft. $154
2014-03-22 Single Family Spanish/Mediterranean 1060 Sylvia Ln Tampa, FL 33613 $654,002 3,598 sq. ft. 14,375 sq. ft. $182
2014-03-22 Single Family Spanish/Mediterranean 1064 Sylvia Ln Tampa, FL 33613 $616,186 3,598 sq. ft. 12,632 sq. ft. $171
2014-03-22 Single Family Ranch; Traditional 17203 Lakay Pl Tampa, FL 33647 $650,000 3,467 sq. ft. 28,750 sq. ft. $187
2014-03-22 Single Family Spanish/Mediterranean 14204 Homosassa St Tampa, FL 33613 $529,147 3,598 sq. ft. 12,632 sq. ft. $147
2014-03-22 Single Family 8460 Dunham Station Dr Tampa, FL 33647 $459,900 3,162 sq. ft. 11,326 sq. ft. $145
2014-03-22 Single Family 20119 Bay Cedar Ave Tampa, FL 33647 $182,900 1,576 sq. ft. 6,098 sq. ft. $116
2014-03-21 Single Family 5166 Sterling Manor Dr Tampa, FL 33647 $219,900 1,881 sq. ft. 4,356 sq. ft. $117
2014-03-21 Single Family 7415 Savannah Ln Tampa, FL 33637 $149,900 1,529 sq. ft. 6,534 sq. ft. $98
2014-03-20 Single Family Colonial 19229 Pepper Grass Dr Tampa, FL 33647 $289,990 3,098 sq. ft. 7,841 sq. ft. $94
2014-03-20 Single Family 2034 Gregory Dr Tampa, FL 33613 $49,900 1,254 sq. ft. 8,712 sq. ft. $40
2014-03-20 Single Family Ranch 18154 Heron Walk Dr Tampa, FL 33647 $248,900 2,272 sq. ft. 7,405 sq. ft. $110
2014-03-20 Single Family Traditional 2505 Cozumel Dr Tampa, FL 33618 $399,000 2,442 sq. ft. 13,068 sq. ft. $163
2014-03-19 Single Family 18422 Eastwyck Dr Tampa, FL 33647 $369,500 3,111 sq. ft. 13,068 sq. ft. $119
2014-03-19 Single Family 12604 Clendenning Dr Tampa, FL 33618 $325,000 2,634 sq. ft. 14,375 sq. ft. $123
2014-03-19 Single Family Traditional; Bungalow 9470 Leatherwood Ave Tampa, FL 33647 $179,000 1,586 sq. ft. 6,098 sq. ft. $113
2014-03-19 Single Family Contemporary 17822 Hickory Moss Pl Tampa, FL 33647 $450,000 2,827 sq. ft. 20,473 sq. ft. $159
2014-03-18 Single Family Contemporary 16165 Colchester Palms Dr Tampa, FL 33647 $407,000 3,293 sq. ft. 6,534 sq. ft. $124
2014-03-18 Single Family Contemporary 17207 Keely Dr Tampa, FL 33647 $375,000 2,951 sq. ft. 6,970 sq. ft. $127
2014-03-18 Single Family 10751 Cory Lake Dr Tampa, FL 33647 $414,900 3,339 sq. ft. 9,583 sq. ft. $124
2014-03-17 Single Family Courtyard; Custom; Ranch 8434 Dunham Station Dr Tampa, FL 33647 $610,000 3,226 sq. ft. 11,326 sq. ft. $189
2014-03-17 Single Family Spanish/Mediterranean 20007 Ryman Pl Tampa, FL 33647 $476,990 2,906 sq. ft. 11,326 sq. ft. $164
2014-03-17 Single Family Contemporary 17860 Arbor Greene Dr Tampa, FL 33647 $448,900 3,389 sq. ft. 13,068 sq. ft. $132
2014-03-17 Single Family 6206 Farthing St Tampa, FL 33647 $329,800 2,688 sq. ft. 10,019 sq. ft. $123
2014-03-17 Single Family Spanish/Mediterranean 10605 Cayman Isle Ct Tampa, FL 33647 $650,000 5,399 sq. ft. 19,166 sq. ft. $120
2014-03-17 Single Family 14229 Avon Farms Drive Tampa, FL 33618 $410,900 2,414 sq. ft. 6,534 sq. ft. $170
2014-03-17 Single Family 2913 Safe Harbor Dr Tampa, FL 33618 $1,800,000 7,849 sq. ft. 37,026 sq. ft. $229
2014-03-17 Single Family 19213 Pelican Ridge Ln Tampa, FL 33647 $289,900 2,710 sq. ft. 8,276 sq. ft. $107
2014-03-16 Single Family French Provincial 2627 Milford Berry Lane Tampa, FL 33618 $475,900 3,937 sq. ft. 6,970 sq. ft. $121
2014-03-16 Single Family 2629 Milford Berry Lane Tampa, FL 33618 $392,900 2,414 sq. ft. 6,534 sq. ft. $163
2014-03-16 Single Family Tampa, FL 33647 $185,000 2,014 sq. ft. 6,098 sq. ft. $92
2014-03-16 Single Family 7324 Sequoia Dr Tampa, FL 33637 $124,900 1,629 sq. ft. 6,970 sq. ft. $77
2014-03-16 Single Family French Provincial 14217 Avon Farms Dr Tampa, FL 33618 $480,900 3,339 sq. ft. 6,970 sq. ft. $144
2014-03-15 Single Family 15336 Winding Creek Dr Tampa, FL 33613 $239,900 2,346 sq. ft. 13,939 sq. ft. $102
2014-03-14 Single Family 16407 Avila Blvd Blvd Tampa, FL 33613 $1,175,000 4,667 sq. ft. 23,087 sq. ft. $252
2014-03-14 Single Family Contemporary 9115 Canberley Dr Tampa, FL 33647 $325,000 2,959 sq. ft. 10,019 sq. ft. $110
2014-03-14 Single Family Traditional 16404 Avila Blvd Tampa, FL 33613 $1,599,000 5,801 sq. ft. 48,352 sq. ft. $276
2014-03-14 Single Family Contemporary 20418 Walnut Grove Ln Tampa, FL 33647 $269,900 2,773 sq. ft. 8,712 sq. ft. $97
2014-03-12 Single Family 3026 Samara Dr Tampa, FL 33618 $325,000 2,363 sq. ft. 11,326 sq. ft. $138
2014-03-12 Single Family Contemporary Tampa, FL 33647 $349,900 3,169 sq. ft. 23,522 sq. ft. $110
2014-03-12 Single Family 18312 Elmhurst Ln Tampa, FL 33647 $174,500 1,714 sq. ft. 10,454 sq. ft. $102
2014-03-12 Single Family 8317 Oleander Ln Tampa, FL 33637 $73,000 904 sq. ft. 7,841 sq. ft. $81
2014-03-12 Single Family Traditional 16237 Nottingham Park Way Tampa, FL 33647 $339,000 2,950 sq. ft. 10,019 sq. ft. $115
2014-03-12 Single Family 3210 Stoneybrook Ln Tampa, FL 33618 $549,000 2,916 sq. ft. 14,810 sq. ft. $188
2014-03-12 Single Family 10567 Cory Lake Dr Tampa, FL 33647 $625,000 3,699 sq. ft. 21,780 sq. ft. $169
2014-03-12 Single Family Contemporary 16050 Bella Woods Dr Tampa, FL 33647 $350,000 3,078 sq. ft. 5,227 sq. ft. $114
2014-03-12 Single Family Florida; Contemporary 20012 Nob Oak Ave Tampa, FL 33647 $247,000 2,098 sq. ft. 6,534 sq. ft. $118
2014-03-11 Single Family Florida 10324 Birdwatch Dr Tampa, FL 33647 $189,000 1,610 sq. ft. 4,792 sq. ft. $117
2014-03-11 Single Family Spanish/Mediterranean 1224 Hillandale Reserve Dr Tampa, FL 33613 $423,721 3,467 sq. ft. 10,019 sq. ft. $122
2014-03-10 Single Family 11402 Country Oaks Dr Tampa, FL 33618 $245,900 2,407 sq. ft. 10,454 sq. ft. $102
2014-03-10 Single Family Traditional 11212 Carrollwood Dr Tampa, FL 33618 $440,000 3,542 sq. ft. 14,375 sq. ft. $124
2014-03-10 Single Family 16403 Lake Byrd Dr Tampa, FL 33618 $171,900 1,670 sq. ft. 11,326 sq. ft. $103
2014-03-10 Single Family Contemporary 18114 Palm Beach Dr Tampa, FL 33647 $310,000 3,692 sq. ft. 13,504 sq. ft. $84
2014-03-10 Single Family 17003 Madres De Avila Tampa, FL 33613 $1,295,000 5,570 sq. ft. 36,155 sq. ft. $232
2014-03-09 Single Family 16039 Grass Lake Dr Tampa, FL 33618 $95,000 1,042 sq. ft. 4,792 sq. ft. $91
2014-03-08 Single Family Florida; Traditional 1804 Bearss Ave Tampa, FL 33613 $699,000 3,135 sq. ft. 47,045 sq. ft. $223
2014-03-07 Single Family Ranch 16106 Chancery Pl Tampa, FL 33613 $274,900 2,647 sq. ft. 14,375 sq. ft. $104
2014-03-07 Single Family Contemporary 18318 Elmhurst Ln Tampa, FL 33647 $199,500 1,874 sq. ft. 14,810 sq. ft. $106
2014-03-07 Single Family 9203 Pebble Creek Dr Tampa, FL 33647 $150,000 1,795 sq. ft. 9,148 sq. ft. $84
2014-03-07 Single Family Contemporary 4917 Ebensburg Dr Tampa, FL 33647 $359,000 2,413 sq. ft. 9,583 sq. ft. $149
2014-03-06 Single Family Traditional 16907 Candeleda De Avila Tampa, FL 33613 $849,000 4,983 sq. ft. 33,106 sq. ft. $170
2014-03-06 Single Family Colonial 19119 Climbing Aster Dr Tampa, FL 33647 $479,900 4,163 sq. ft. 11,761 sq. ft. $115
2014-03-06 Single Family Contemporary 10740 Pictorial Park Dr Tampa, FL 33647 $309,900 2,564 sq. ft. 6,098 sq. ft. $121
2014-03-06 Single Family Contemporary 16108 Brecon Palms Pl Tampa, FL 33647 $450,000 3,526 sq. ft. 8,276 sq. ft. $128
2014-03-06 Single Family Contemporary 1048 Sylvia Ln Tampa, FL 33613 $303,500 2,701 sq. ft. 11,761 sq. ft. $112
2014-03-05 Single Family 17773 Esprit Dr Tampa, FL 33647 $172,500 1,538 sq. ft. 6,970 sq. ft. $112
2014-03-05 Single Family Traditional 4101 Carrollwood Village Forest Dr Tampa, FL 33618 $699,500 3,661 sq. ft. 13,939 sq. ft. $191
2014-03-05 Single Family Traditional 16370 Heathrow Dr Tampa, FL 33647 $639,000 3,888 sq. ft. 13,504 sq. ft. $164
2014-03-05 Single Family Ranch 7206 Wareham Dr Tampa, FL 33647 $434,900 2,781 sq. ft. 13,939 sq. ft. $156
2014-03-04 Single Family 17910 Bahama Isle Dr Tampa, FL 33647 $389,900 3,140 sq. ft. 9,583 sq. ft. $124
2014-03-04 Single Family 10535 Mistflower Ln Tampa, FL 33647 $390,900 3,393 sq. ft. 10,890 sq. ft. $115
2014-03-04 Single Family 19225 Verdant Pasture Way Tampa, FL 33647 $305,900 2,957 sq. ft. $103
2014-03-03 Single Family Traditional 10505 Mistflower Ln Tampa, FL 33647 $499,000 4,766 sq. ft. 14,810 sq. ft. $105
2014-03-03 Single Family Contemporary 10686 Grand Riviere Dr Tampa, FL 33647 $239,900 3,086 sq. ft. 9,148 sq. ft. $78
2014-03-03 Single Family Florida 8203 Myrtle Point Way Tampa, FL 33647 $300,000 2,605 sq. ft. 6,970 sq. ft. $115
2014-03-03 Single Family Contemporary; Florida 6420 Maclaurin Dr Tampa, FL 33647 $799,000 4,411 sq. ft. 27,007 sq. ft. $181
2014-03-01 Single Family 5406 Burchette Rd Tampa, FL 33647 $319,900 2,375 sq. ft. 15,246 sq. ft. $135
2014-03-01 Single Family Contemporary 9313 Huntington Park Way Tampa, FL 33647 $194,900 1,838 sq. ft. 5,663 sq. ft. $106
2014-02-28 Single Family Tampa, FL 33618 $299,000 2,022 sq. ft. 8,712 sq. ft. $148
2014-02-28 Single Family 4409 Summer Oak Dr Tampa, FL 33618 $229,900 2,253 sq. ft. 8,712 sq. ft. $102
2014-02-28 Single Family Contemporary 17341 Emerald Chase Dr Tampa, FL 33647 $614,900 3,260 sq. ft. 11,326 sq. ft. $189
2014-02-28 Single Family 17712 Hampshire Oak Dr Tampa, FL 33647 $277,000 2,625 sq. ft. 9,148 sq. ft. $106
2014-02-28 Single Family Traditional 20105 Bending Creek Pl Tampa, FL 33647 $160,000 1,588 sq. ft. 4,792 sq. ft. $101
2014-02-27 Single Family Contemporary 10630 Cory Lake Dr Tampa, FL 33647 $349,900 3,595 sq. ft. 10,454 sq. ft. $97
2014-02-27 Single Family Ranch 924 Lakewood Ave Tampa, FL 33613 $149,900 1,212 sq. ft. 7,841 sq. ft. $124
2014-02-27 Single Family 6619 Thornton Palms Dr Tampa, FL 33647 $399,900 3,744 sq. ft. 8,712 sq. ft. $107
2014-02-27 Single Family Tampa, FL 33613 $178,000 1,973 sq. ft. 9,148 sq. ft. $90
2014-02-27 Single Family 18510 Ambly Ln Tampa, FL 33647 $250,000 2,328 sq. ft. 6,534 sq. ft. $107
2014-02-26 Single Family Contemporary 9308 Huntington Park Way Tampa, FL 33647 $149,900 1,578 sq. ft. 5,663 sq. ft. $95
2014-02-26 Single Family 9319 Hampshire Park Dr Tampa, FL 33647 $375,000 3,235 sq. ft. 15,682 sq. ft. $116
2014-02-26 Single Family Spanish/Mediterranean 20308 Chestnut Grove Dr Tampa, FL 33647 $329,900 3,100 sq. ft. 6,970 sq. ft. $106
2014-02-25 Single Family 706 Gateway Ln Tampa, FL 33613 $131,600 1,326 sq. ft. 7,841 sq. ft. $99
2014-02-25 Single Family 16145 Ravendale Dr Tampa, FL 33618 $109,900 1,463 sq. ft. 6,534 sq. ft. $75
2014-02-25 Single Family Contemporary 10662 Pictorial Park Dr Tampa, FL 33647 $225,000 2,092 sq. ft. 6,098 sq. ft. $108
2014-02-25 Single Family 18314 Eastwyck Dr Tampa, FL 33647 $319,000 3,139 sq. ft. 10,019 sq. ft. $102
2014-02-24 Single Family Contemporary 10869 Cory Lake Dr Tampa, FL 33647 $239,400 2,100 sq. ft. 12,197 sq. ft. $114
2014-02-24 Single Family Ranch 15537 Woodway Dr Tampa, FL 33613 $199,500 1,949 sq. ft. 15,682 sq. ft. $102
2014-02-24 Single Family Contemporary 10254 Waterside Oaks Dr Tampa, FL 33647 $369,900 3,279 sq. ft. 10,890 sq. ft. $113
2014-02-23 Single Family 10202 Goldenbrook Way Tampa, FL 33647 $249,900 2,350 sq. ft. 6,098 sq. ft. $106
2014-02-23 Single Family 10910 Ancient Futures Dr Tampa, FL 33647 $239,900 2,563 sq. ft. 6,098 sq. ft. $94
2014-02-22 Single Family 902 Palacio De Avila Tampa, FL 33613 $1,999,000 6,600 sq. ft. 65,776 sq. ft. $303
2014-02-22 Single Family Contemporary 15824 Fairchild Dr Tampa, FL 33647 $435,000 3,392 sq. ft. 12,632 sq. ft. $128
2014-02-21 Single Family Contemporary 4916 Londonderry Dr Tampa, FL 33647 $725,000 4,815 sq. ft. 18,295 sq. ft. $151
2014-02-21 Single Family 10310 Goldenbrook Way Tampa, FL 33647 $119,900 1,805 sq. ft. 6,970 sq. ft. $66
2014-02-21 Single Family Traditional 7918 Hampton Lake Dr Tampa, FL 33647 $234,900 2,346 sq. ft. 6,098 sq. ft. $100
2014-02-21 Single Family Contemporary 8122 Camella Ln Tampa, FL 33647 $250,000 2,662 sq. ft. 7,841 sq. ft. $94
2014-02-20 Single Family Contemporary 18169 Sandy Pointe Dr Tampa, FL 33647 $149,900 1,507 sq. ft. 6,534 sq. ft. $99
2014-02-20 Single Family Traditional 5022 Ashington Landing Dr Tampa, FL 33647 $499,900 3,402 sq. ft. 27,007 sq. ft. $147
2014-02-20 Single Family 139 145th Ave Tampa, FL 33613 $59,900 1,472 sq. ft. 6,098 sq. ft. $41
2014-02-19 Single Family Ranch 2015 Gregory Dr Tampa, FL 33613 $64,500 1,311 sq. ft. 4,792 sq. ft. $49
2014-02-19 Single Family Traditional 16308 Avila Blvd Tampa, FL 33613 $1,150,000 6,237 sq. ft. 45,302 sq. ft. $184
2014-02-19 Single Family 5202 Ives Ct Tampa, FL 33647 $299,900 2,383 sq. ft. 16,988 sq. ft. $126
2014-02-19 Single Family Traditional 17768 Oak Bridge St Tampa, FL 33647 $250,000 2,518 sq. ft. 8,276 sq. ft. $99
2014-02-18 Single Family Ranch 16002 Saddle Creek Dr Tampa, FL 33618 $125,000 1,580 sq. ft. 7,405 sq. ft. $79
2014-02-18 Single Family 20206 Ravens End Dr Tampa, FL 33647 $425,000 3,866 sq. ft. 9,583 sq. ft. $110
2014-02-18 Single Family Contemporary 10409 Canary Isle Dr Tampa, FL 33647 $375,000 3,338 sq. ft. 6,970 sq. ft. $112
2014-02-17 Single Family Ranch 3402 Brookshire Ct Tampa, FL 33618 $309,000 2,447 sq. ft. 10,454 sq. ft. $126
2014-02-17 Single Family Contemporary 4641 Westford Cir Tampa, FL 33618 $374,900 3,043 sq. ft. 13,939 sq. ft. $123
2014-02-17 Single Family Contemporary 9316 Mangrove Ct Tampa, FL 33647 $329,900 2,992 sq. ft. 9,148 sq. ft. $110
2014-02-17 Single Family Tampa, FL 33647 $158,900 1,808 sq. ft. 5,663 sq. ft. $88
2014-02-15 Single Family 9307 Hampshire Park Dr Tampa, FL 33647 $299,999 3,235 sq. ft. 8,276 sq. ft. $93
2014-02-14 Single Family Contemporary 18812 Forest Glen Ct Tampa, FL 33647 $269,900 2,414 sq. ft. 10,019 sq. ft. $112
2014-02-14 Single Family 10455 Canary Isle Dr Tampa, FL 33647 $267,000 2,353 sq. ft. 6,970 sq. ft. $113
2014-02-14 Single Family Contemporary 3616 Arlington Oaks Ct Tampa, FL 33618 $260,000 1,721 sq. ft. 11,761 sq. ft. $151
2014-02-14 Single Family 15517 Lake Magdalene Blvd Tampa, FL 33613 $995,000 3,063 sq. ft. 30,492 sq. ft. $325
2014-02-14 Single Family 8908 Copper Ridge Ln Tampa, FL 33647 $204,900 2,270 sq. ft. 10,454 sq. ft. $90
2014-02-14 Single Family Florida 10820 Cory Lake Dr Tampa, FL 33647 $268,900 2,094 sq. ft. 7,841 sq. ft. $128
2014-02-13 Single Family Contemporary 20417 Walnut Grove Ln Tampa, FL 33647 $364,900 3,452 sq. ft. 7,841 sq. ft. $106
2014-02-13 Single Family 2101 Climbing Ivy Dr Tampa, FL 33618 $595,000 4,288 sq. ft. 13,068 sq. ft. $139
2014-02-13 Single Family 17809 Hickory Moss Pl Tampa, FL 33647 $320,000 2,527 sq. ft. 10,890 sq. ft. $127
2014-02-13 Single Family 4958 Ebensburg Dr Tampa, FL 33647 $245,000 2,389 sq. ft. 10,454 sq. ft. $103
2014-02-13 Single Family Contemporary 10439 Canary Isle Dr Tampa, FL 33647 $389,999 3,455 sq. ft. 5,227 sq. ft. $113
2014-02-13 Single Family 18328 Cypress View Way Tampa, FL 33647 $184,900 1,848 sq. ft. 7,405 sq. ft. $100
2014-02-12 Single Family 6018 Catlin Dr Tampa, FL 33647 $289,900 2,574 sq. ft. 11,761 sq. ft. $113
2014-02-12 Single Family 10415 Lucaya Dr Tampa, FL 33647 $260,000 2,909 sq. ft. 8,712 sq. ft. $89
2014-02-12 Single Family 9157 Highland Ridge Way Tampa, FL 33647 $334,900 3,157 sq. ft. 13,939 sq. ft. $106
2014-02-12 Single Family 8301 Riverboat Dr Tampa, FL 33637 $84,900 1,200 sq. ft. 4,792 sq. ft. $71
2014-02-12 Single Family Traditional 6612 Thornton Palms Drive Tampa, FL 33647 $450,000 2,819 sq. ft. 9,148 sq. ft. $160
2014-02-12 Single Family Contemporary 8337 Old Town Dr Tampa, FL 33647 $399,900 3,447 sq. ft. 12,197 sq. ft. $116
2014-02-11 Single Family Contemporary 2905 Safe Harbor Drive Tampa, FL 33618 $1,425,000 5,977 sq. ft. 24,394 sq. ft. $238
2014-02-11 Single Family Traditional Tampa, FL 33613 $1,599,000 5,056 sq. ft. 30,056 sq. ft. $316
2014-02-11 Single Family 18004 Avalon Ln Tampa, FL 33647 $434,900 3,423 sq. ft. 8,276 sq. ft. $127
2014-02-11 Single Family 17819 Arbor Creek Dr Tampa, FL 33647 $270,000 2,821 sq. ft. 6,970 sq. ft. $96
2014-02-10 Single Family Colonial 2821 Samara Dr Tampa, FL 33618 $1,195,000 3,522 sq. ft. 26,136 sq. ft. $339
2014-02-10 Single Family 10102 Arbor Run Dr Tampa, FL 33647 $229,000 2,060 sq. ft. 6,534 sq. ft. $111
2014-02-10 Single Family Contemporary 5112 Stonehurst Rd Tampa, FL 33647 $350,000 2,731 sq. ft. 12,632 sq. ft. $128
2014-02-10 Single Family Florida 20225 Merry Oak Ave Tampa, FL 33647 $240,000 2,032 sq. ft. 6,970 sq. ft. $118
2014-02-09 Single Family 13312 Moran Dr Tampa, FL 33618 $185,000 1,789 sq. ft. 9,583 sq. ft. $103
2014-02-08 Single Family 9109 Oak Pride Ct Tampa, FL 33647 $209,000 2,052 sq. ft. 6,534 sq. ft. $102
2014-02-07 Single Family Traditional 14624 Lake Magdalene Cir Tampa, FL 33613 $459,990 3,765 sq. ft. 15,246 sq. ft. $122
2014-02-06 Single Family 14912 Philmore Rd Tampa, FL 33613 $174,900 1,341 sq. ft. 8,276 sq. ft. $130
2014-02-06 Single Family 1805 Bella Lago Ln Tampa, FL 33618 $799,000 3,962 sq. ft. 15,682 sq. ft. $202
2014-02-05 Single Family Traditional 10264 Devonshire Lake Dr Tampa, FL 33647 $189,900 1,776 sq. ft. 7,405 sq. ft. $107
2014-02-05 Single Family Traditional 16904 Candeleda De Avila Tampa, FL 33613 $1,395,000 6,079 sq. ft. 25,265 sq. ft. $229
2014-02-04 Single Family Contemporary 4408 Casey Lake Blvd Tampa, FL 33618 $331,000 2,563 sq. ft. 10,019 sq. ft. $129
2014-02-04 Single Family Contemporary 16320 Burniston Dr Tampa, FL 33647 $1,175,000 6,269 sq. ft. 30,056 sq. ft. $187
2014-02-04 Single Family Tampa, FL 33613 $63,000 1,644 sq. ft. 18,731 sq. ft. $38
2014-02-03 Single Family 13815 Capitol Dr Tampa, FL 33613 $180,000 1,482 sq. ft. 8,712 sq. ft. $121
2014-02-03 Single Family 10921 Observatory Way Tampa, FL 33647 $344,900 3,546 sq. ft. 5,663 sq. ft. $97
2014-02-02 Single Family 0 Lowell Tampa, FL 33618 $1,520,000 7,783 sq. ft. 47,480 sq. ft. $195
2014-02-02 Single Family 2515 Greenmoor Pl Tampa, FL 33618 $215,000 1,926 sq. ft. 10,890 sq. ft. $112
2014-02-02 Single Family 8501 Bramwell Way Tampa, FL 33647 $250,000 2,827 sq. ft. 11,326 sq. ft. $88
2014-02-01 Single Family Contemporary; Florida 17847 Arbor Greene Dr. Drive Tampa, FL 33647 $369,000 3,482 sq. ft. 11,326 sq. ft. $106
2014-02-01 Single Family 9206 Celebration Ct Tampa, FL 33647 $199,000 1,815 sq. ft. 7,405 sq. ft. $110
2014-02-01 Single Family Ranch; Contemporary; Florida 2810 Ormandy Ct Tampa, FL 33618 $249,000 2,206 sq. ft. 10,454 sq. ft. $113
2014-02-01 Single Family Contemporary 9429 Pebble Glen Ave Tampa, FL 33647 $220,000 2,907 sq. ft. 6,970 sq. ft. $76
2014-02-01 Single Family Cape Cod 3616 Schefflera Rd Tampa, FL 33618 $269,900 2,162 sq. ft. 12,632 sq. ft. $125
2014-01-31 Single Family 15302 Stonecreek Ln Tampa, FL 33613 $299,900 2,478 sq. ft. 38,333 sq. ft. $121
2014-01-31 Single Family 9024 Navajo Ave Tampa, FL 33637 $164,900 1,560 sq. ft. 15,682 sq. ft. $106
2014-01-31 Single Family 14921 Pinecrest Rd Tampa, FL 33613 $58,000 768 sq. ft. 6,098 sq. ft. $76
2014-01-30 Single Family Florida; Traditional Tampa, FL 33647 $1,350,000 5,392 sq. ft. 33,977 sq. ft. $250
2014-01-29 Single Family Contemporary 17505 Woodthrush Pl Tampa, FL 33647 $255,000 2,350 sq. ft. 6,970 sq. ft. $109
2014-01-29 Single Family 9203 Rockrose Dr Tampa, FL 33647 $204,900 2,252 sq. ft. 7,841 sq. ft. $91
2014-01-29 Single Family 18244 Collridge Dr Tampa, FL 33647 $265,000 2,306 sq. ft. 9,148 sq. ft. $115
2014-01-29 Single Family Ranch 10937 Cory Lake Dr Tampa, FL 33647 $269,000 1,939 sq. ft. 6,534 sq. ft. $139
2014-01-28 Single Family 9112 Rockrose Dr Tampa, FL 33647 $249,900 2,398 sq. ft. 7,841 sq. ft. $104
2014-01-27 Single Family Ranch 3401 Mcfarland Rd Tampa, FL 33618 $415,000 3,218 sq. ft. 13,068 sq. ft. $129
2014-01-27 Single Family 1104 139th Ave Tampa, FL 33613 $109,900 662 sq. ft. 11,326 sq. ft. $166
2014-01-25 Single Family Florida 10821 Breaking Rocks Dr Tampa, FL 33647 $340,000 2,929 sq. ft. 8,712 sq. ft. $116
2014-01-24 Single Family 10627 Pictorial Park Dr Tampa, FL 33647 $229,000 2,112 sq. ft. 5,663 sq. ft. $108
2014-01-24 Single Family 10303 Beneva Dr Tampa, FL 33647 $180,000 1,350 sq. ft. 6,534 sq. ft. $133
2014-01-24 Single Family Contemporary 10203 Arbor Side Dr Tampa, FL 33647 $386,611 2,716 sq. ft. 9,583 sq. ft. $142
2014-01-24 Single Family 13505 Gibbons Pass Tampa, FL 33613 $169,900 1,833 sq. ft. 11,761 sq. ft. $93
2014-01-24 Single Family 19932 Tamiami Ave Tampa, FL 33647 $369,900 4,188 sq. ft. 7,405 sq. ft. $88
2014-01-24 Single Family 8728 Tantallon Cir Tampa, FL 33647 $330,000 3,435 sq. ft. 10,454 sq. ft. $96
2014-01-22 Single Family Ranch; Traditional 13826 Cherry Creek Dr Tampa, FL 33618 $299,000 2,514 sq. ft. 9,148 sq. ft. $119
2014-01-21 Single Family 13512 Little Lake Pl Tampa, FL 33613 $259,900 2,882 sq. ft. 14,375 sq. ft. $90
2014-01-21 Single Family Contemporary 14915 Lejuene Ln Tampa, FL 33613 $199,000 1,995 sq. ft. 10,454 sq. ft. $100
2014-01-20 Single Family Contemporary 18128 Sweet Jasmine Dr Tampa, FL 33647 $240,000 2,602 sq. ft. 8,276 sq. ft. $92
2014-01-20 Single Family Traditional 16402 Shagbark Pl Tampa, FL 33618 $369,900 3,474 sq. ft. 46,174 sq. ft. $106
2014-01-20 Single Family Contemporary 20047 Heritage Point Dr Tampa, FL 33647 $195,000 1,823 sq. ft. 3,920 sq. ft. $107
2014-01-20 Single Family Ranch 10327 Goldenbrook Way Tampa, FL 33647 $179,900 1,310 sq. ft. 5,663 sq. ft. $137
2014-01-20 Single Family 18309 Elmhurst Ln Tampa, FL 33647 $225,000 1,874 sq. ft. 5,663 sq. ft. $120
2014-01-20 Single Family Traditional 17902 Cachet Isle Dr Tampa, FL 33647 $650,000 4,261 sq. ft. 18,295 sq. ft. $153
2014-01-19 Single Family Tampa, FL 33647 $389,000 2,981 sq. ft. 9,148 sq. ft. $130
2014-01-18 Single Family Traditional 14747 Lake Magdalene Circle Tampa, FL 33613 $359,000 2,836 sq. ft. 10,019 sq. ft. $127
2014-01-18 Single Family Contemporary 8010 Cypress Crossing Ct Tampa, FL 33647 $349,900 3,096 sq. ft. 7,405 sq. ft. $113
2014-01-17 Single Family Contemporary 10824 Breaking Rocks Dr Tampa, FL 33647 $335,000 3,532 sq. ft. 7,841 sq. ft. $95
2014-01-17 Single Family Contemporary 901 Palacio De Avila Tampa, FL 33613 $6,550,000 18,703 sq. ft. 149,846 sq. ft. $350
2014-01-17 Single Family 9339 Deer Creek Dr Tampa, FL 33647 $379,000 2,778 sq. ft. 10,454 sq. ft. $136
2014-01-16 Single Family Contemporary 18105 Kara Ct Tampa, FL 33647 $310,000 3,250 sq. ft. 6,970 sq. ft. $95
2014-01-16 Single Family 15934 Ellsworth Dr Tampa, FL 33647 $389,900 3,139 sq. ft. 13,504 sq. ft. $124
2014-01-15 Single Family 3333 Ehrlich Rd Tampa, FL 33618 $525,000 3,393 sq. ft. $155
2014-01-15 Single Family 17802 Arbor Greene Dr Tampa, FL 33647 $374,900 3,266 sq. ft. 14,810 sq. ft. $115
2014-01-14 Single Family Traditional 10105 Whisper Pointe Dr Tampa, FL 33647 $305,000 2,580 sq. ft. 8,712 sq. ft. $118
2014-01-14 Single Family Contemporary 4510 Old Orchard Dr Tampa, FL 33618 $389,000 3,378 sq. ft. 17,424 sq. ft. $115
2014-01-14 Single Family Florida 20443 Autumn Fern Ave Tampa, FL 33647 $259,900 2,320 sq. ft. 6,534 sq. ft. $112
2014-01-14 Single Family 15419 Lake Magdalene Blvd Tampa, FL 33613 $630,000 1,384 sq. ft. 57,499 sq. ft. $455
2014-01-13 Single Family Traditional 8702 Ballantrae Way Tampa, FL 33647 $329,900 2,783 sq. ft. 10,890 sq. ft. $119
2014-01-13 Single Family 7021 Conifer Dr Tampa, FL 33637 $69,900 1,500 sq. ft. 6,098 sq. ft. $47
2014-01-13 Single Family Florida; Traditional; Other 9908 Spice Bush Ct Tampa, FL 33647 $241,990 1,810 sq. ft. 6,098 sq. ft. $134
2014-01-13 Single Family 19302 Yellow Clover Dr Tampa, FL 33647 $338,000 3,282 sq. ft. 13,504 sq. ft. $103
2014-01-12 Single Family 10729 Pictorial Park Dr Tampa, FL 33647 $287,900 3,472 sq. ft. 9,583 sq. ft. $83
2014-01-12 Single Family Ranch; Contemporary 14003 Shady Shores Dr Tampa, FL 33613 $289,000 2,353 sq. ft. 10,890 sq. ft. $123
2014-01-10 Single Family 9721 Little Pond Way Tampa, FL 33647 $149,000 1,256 sq. ft. 4,792 sq. ft. $119
2014-01-10 Single Family 14008 Dominion Ct Tampa, FL 33613 $140,000 1,326 sq. ft. 8,276 sq. ft. $106
2014-01-10 Single Family Traditional 14307 Diplomat Dr Tampa, FL 33613 $173,000 1,548 sq. ft. 14,375 sq. ft. $112
2014-01-10 Single Family 18119 Kara Ct Tampa, FL 33647 $285,000 3,063 sq. ft. 6,534 sq. ft. $93
2014-01-09 Single Family Ranch 13830 Cherry Creek Dr Tampa, FL 33618 $184,900 1,475 sq. ft. 9,148 sq. ft. $125
2014-01-08 Single Family 19149 Dove Creek Dr Tampa, FL 33647 $259,500 2,904 sq. ft. 7,405 sq. ft. $89
2014-01-08 Single Family Contemporary 9058 Quail Creek Dr Tampa, FL 33647 $240,000 2,347 sq. ft. 6,970 sq. ft. $102
2014-01-07 Single Family Contemporary 19305 Yellow Clover Dr Tampa, FL 33647 $389,900 3,541 sq. ft. 10,019 sq. ft. $110
2014-01-07 Single Family Contemporary 17229 Emerald Chase Dr Tampa, FL 33647 $850,000 4,915 sq. ft. 11,761 sq. ft. $173
2014-01-06 Single Family Contemporary 16412 Burniston Dr Tampa, FL 33647 $998,000 5,010 sq. ft. 33,977 sq. ft. $199
2014-01-06 Single Family 16306 Millan De Avila Tampa, FL 33613 $1,825,000 7,778 sq. ft. 33,977 sq. ft. $235
2014-01-06 Single Family 8349 Golden Prairie Dr Tampa, FL 33647 $309,900 3,273 sq. ft. 11,326 sq. ft. $95
2014-01-03 Single Family Contemporary 10643 Lucaya Dr Tampa, FL 33647 $260,000 3,014 sq. ft. 5,663 sq. ft. $86
2014-01-03 Single Family Traditional 16905 Candeleda De Avila Tampa, FL 33613 $849,000 4,150 sq. ft. 23,958 sq. ft. $205
2014-01-03 Single Family 10439 Isleworth Ave Tampa, FL 33647 $134,990 1,322 sq. ft. 5,227 sq. ft. $102
2014-01-02 Single Family Contemporary 15908 Layton Ct Tampa, FL 33647 $299,000 2,347 sq. ft. 14,375 sq. ft. $127
2014-01-01 Single Family 14009 Dominion Ct Tampa, FL 33613 $199,900 2,006 sq. ft. 7,841 sq. ft. $100
2013-12-30 Single Family 14910 Fisher Rd Tampa, FL 33613 $99,000 1,152 sq. ft. 12,197 sq. ft. $86
2013-12-30 Single Family 16018 Penwood Dr Tampa, FL 33647 $337,500 2,463 sq. ft. 10,454 sq. ft. $137
2013-12-27 Single Family 2609 Carroll Lake St Tampa, FL 33618 $1,395,000 6,496 sq. ft. 11,761 sq. ft. $215
2013-12-27 Single Family 8347 Dunham Station Dr Tampa, FL 33647 $397,300 3,797 sq. ft. 14,375 sq. ft. $105
2013-12-26 Single Family 10844 Breaking Rocks Dr Tampa, FL 33647 $329,900 3,462 sq. ft. 8,712 sq. ft. $95
2013-12-26 Single Family Spanish/Mediterranean 9322 Fairway Lakes Ct Tampa, FL 33647 $240,000 2,577 sq. ft. 6,534 sq. ft. $93
2013-12-24 Single Family Contemporary 19151 Dove Creek Dr Tampa, FL 33647 $259,900 2,509 sq. ft. 7,841 sq. ft. $104
2013-12-21 Single Family 6332 Maclaurin Dr Tampa, FL 33647 $875,000 5,809 sq. ft. 22,651 sq. ft. $151
2013-12-20 Single Family Florida 8506 Temple Park Dr Tampa, FL 33637 $120,000 1,204 sq. ft. 6,970 sq. ft. $100
2013-12-20 Single Family 3336 Foxridge Cir Tampa, FL 33618 $265,000 1,789 sq. ft. 10,454 sq. ft. $148
2013-12-19 Single Family 18208 Holly Hills Way Tampa, FL 33647 $154,000 1,330 sq. ft. 5,663 sq. ft. $116
2013-12-19 Single Family Contemporary 9305 Poplar Creek Ct Tampa, FL 33647 $350,000 3,235 sq. ft. 7,841 sq. ft. $108
2013-12-18 Single Family 717 137th Ave Tampa, FL 33613 $106,000 1,532 sq. ft. 13,068 sq. ft. $69
2013-12-18 Single Family Traditional 8114 Hampton Lake Dr Tampa, FL 33647 $309,960 2,622 sq. ft. 9,148 sq. ft. $118
2013-12-18 Single Family 12615 Orange Grove Dr Tampa, FL 33618 $600,000 5,427 sq. ft. 47,045 sq. ft. $111
2013-12-18 Single Family Florida 20132 Bending Creek Pl Tampa, FL 33647 $240,900 2,781 sq. ft. 10,454 sq. ft. $87
2013-12-17 Single Family 14742 Lake Magdalene Cir Tampa, FL 33613 $499,900 2,964 sq. ft. 18,295 sq. ft. $169
2013-12-16 Single Family Traditional 8349 Torrington Ave Tampa, FL 33647 $220,000 2,321 sq. ft. 10,019 sq. ft. $95
2013-12-16 Single Family Contemporary 15107 Monet Dr Tampa, FL 33613 $220,000 1,630 sq. ft. 6,534 sq. ft. $135
2013-12-16 Single Family Contemporary; Florida 10109 Arbor Run Dr Tampa, FL 33647 $199,900 1,867 sq. ft. 5,663 sq. ft. $107
2013-12-15 Single Family Traditional 9083 Quail Creek Dr Tampa, FL 33647 $260,000 2,214 sq. ft. 6,970 sq. ft. $117
2013-12-15 Single Family Florida 18124 Courtney Breeze Dr Tampa, FL 33647 $359,000 3,210 sq. ft. 10,454 sq. ft. $112
2013-12-13 Single Family 5149 Sterling Manor Dr Tampa, FL 33647 $189,900 1,883 sq. ft. 4,792 sq. ft. $101
2013-12-11 Single Family Spanish/Mediterranean 18014 Malakai Isle Dr Tampa, FL 33647 $375,000 2,918 sq. ft. 7,405 sq. ft. $129
2013-12-11 Single Family Contemporary 5014 Givendale Ln Tampa, FL 33647 $1,000,000 5,436 sq. ft. 20,473 sq. ft. $184
2013-12-09 Single Family Ranch 10242 Shadow Branch Dr Tampa, FL 33647 $336,900 3,051 sq. ft. 9,583 sq. ft. $110
2013-12-09 Single Family Contemporary 11006 Ancient Futures Dr Tampa, FL 33647 $258,000 3,482 sq. ft. 9,148 sq. ft. $74
2013-12-09 Single Family 10431 Meadow Spring Dr Tampa, FL 33647 $275,000 2,979 sq. ft. 10,890 sq. ft. $92
2013-12-07 Single Family Florida 20629 Great Laurel Ave Tampa, FL 33647 $249,900 1,905 sq. ft. 5,663 sq. ft. $131
2013-12-06 Single Family Contemporary 14672 Village Glen Cir Tampa, FL 33618 $424,900 3,003 sq. ft. 6,098 sq. ft. $141
2013-12-06 Single Family 18120 Sandy Pointe Dr Tampa, FL 33647 $230,000 2,743 sq. ft. 6,970 sq. ft. $84
2013-12-06 Single Family 16017 Grass Lake Dr Tampa, FL 33618 $114,990 1,087 sq. ft. 4,792 sq. ft. $106
2013-12-05 Single Family Contemporary 6316 Maclaurin Dr Tampa, FL 33647 $899,000 5,648 sq. ft. 21,344 sq. ft. $159
2013-12-05 Single Family 2528 Habana Pl Tampa, FL 33618 $150,900 1,103 sq. ft. 6,970 sq. ft. $137
2013-12-04 Single Family 20007 Satin Leaf Ave Tampa, FL 33647 $254,990 1,890 sq. ft. 5,663 sq. ft. $135
2013-12-04 Single Family 20013 Satin Leaf Ave Tampa, FL 33647 $249,990 2,182 sq. ft. $115
2013-12-03 Single Family 16033 Penwood Dr Tampa, FL 33647 $229,900 2,605 sq. ft. 9,583 sq. ft. $88
2013-12-02 Single Family Contemporary Tampa, FL 33647 $164,900 1,753 sq. ft. 6,970 sq. ft. $94
2013-12-02 Single Family 7112 Yardley Way Tampa, FL 33647 $238,000 1,990 sq. ft. 7,841 sq. ft. $120
2013-12-01 Single Family Contemporary 11002 Ancient Futures Dr Tampa, FL 33647 $285,000 3,464 sq. ft. 6,970 sq. ft. $82
2013-11-26 Single Family Traditional 7908 Hampton Lake Dr Tampa, FL 33647 $315,000 2,822 sq. ft. 6,098 sq. ft. $112
2013-11-25 Single Family 20029 Satin Leaf Ave Tampa, FL 33647 $230,000 1,810 sq. ft. 5,663 sq. ft. $127
2013-11-22 Single Family Contemporary 16059 Bella Woods Dr Tampa, FL 33647 $299,900 2,577 sq. ft. 4,792 sq. ft. $116
2013-11-22 Single Family 19138 Timber Reach Rd Tampa, FL 33647 $379,900 3,662 sq. ft. 13,068 sq. ft. $104
2013-11-22 Single Family 2224 Climbing Ivy Dr Tampa, FL 33618 $329,900 2,779 sq. ft. 8,712 sq. ft. $119
2013-11-21 Single Family Contemporary 10108 Whisper Pointe Dr Tampa, FL 33647 $307,999 2,729 sq. ft. 7,405 sq. ft. $113
2013-11-20 Single Family Contemporary 10401 Riverburn Dr Tampa, FL 33647 $398,900 3,384 sq. ft. 9,148 sq. ft. $118
2013-11-20 Single Family 10620 Mistflower Ln Tampa, FL 33647 $425,900 3,880 sq. ft. 12,197 sq. ft. $110
2013-11-20 Single Family 19229 Verdant Pasture Tampa, FL 33647 $262,900 2,230 sq. ft. $118
2013-11-20 Single Family 19218 Verdant Pasture Tampa, FL 33647 $268,900 2,230 sq. ft. $121
2013-11-20 Single Family Ranch 16411 Lake Byrd Dr Tampa, FL 33618 $150,000 2,024 sq. ft. 10,454 sq. ft. $74
2013-11-16 Single Family 10542 Coral Key Ave Tampa, FL 33647 $240,000 3,719 sq. ft. 6,970 sq. ft. $65
2013-11-15 Single Family 4307 Round Lake Ct Tampa, FL 33618 $374,900 2,512 sq. ft. 10,454 sq. ft. $149
2013-11-14 Single Family Florida 17556 Fairmeadow Dr Tampa, FL 33647 $169,000 1,278 sq. ft. 5,227 sq. ft. $132
2013-11-13 Single Family 13548 Lake Magdalene Dr Tampa, FL 33613 $669,000 4,144 sq. ft. 32,234 sq. ft. $161
2013-11-13 Single Family Contemporary 5011 Landstar Way Tampa, FL 33647 $619,900 3,641 sq. ft. 13,504 sq. ft. $170
2013-11-12 Single Family 9427 Bluebird Dr Tampa, FL 33647 $286,500 2,460 sq. ft. 10,890 sq. ft. $116
2013-11-11 Single Family Ranch 1215 Magdalene Grove Ave Tampa, FL 33613 $354,900 2,746 sq. ft. 14,810 sq. ft. $129
2013-11-11 Single Family Traditional 702 Berrocales De Avila Tampa, FL 33613 $1,895,000 6,129 sq. ft. 35,719 sq. ft. $309
2013-11-09 Single Family Ranch 14011 Lake Magdalene Blvd Tampa, FL 33618 $449,999 3,468 sq. ft. 14,810 sq. ft. $130
2013-11-09 Single Family Traditional 4320 Carrollwood Village Dr Tampa, FL 33618 $439,900 3,125 sq. ft. 13,504 sq. ft. $141
2013-11-04 Single Family Contemporary 17808 Canary Point Ln Tampa, FL 33647 $365,000 3,340 sq. ft. 8,712 sq. ft. $109
2013-11-01 Single Family Spanish/Mediterranean 1210 Beacon Hill Dr Tampa, FL 33613 $272,000 2,294 sq. ft. 14,810 sq. ft. $119
2013-10-31 Single Family 13902 Bardmoor Pl Tampa, FL 33618 $199,000 1,685 sq. ft. 5,663 sq. ft. $118
2013-10-31 Single Family 14917 Smitter Reserve Dr Tampa, FL 33618 $415,900 3,393 sq. ft. $123
2013-10-30 Single Family 19227 Verdant Pasture Way Tampa, FL 33647 $318,900 3,393 sq. ft. $94
2013-10-30 Single Family 19231 Verdant Pasture Way Tampa, FL 33647 $314,900 2,957 sq. ft. $106
2013-10-29 Single Family Traditional 16229 Villarreal De Avila Tampa, FL 33613 $6,495,000 28,363 sq. ft. 148,540 sq. ft. $229
2013-10-25 Single Family Florida 313 Floral Dr Tampa, FL 33613 $149,000 1,808 sq. ft. 14,375 sq. ft. $82
2013-10-18 Single Family Contemporary 20410 Walnut Grove Ln Tampa, FL 33647 $439,000 3,296 sq. ft. 10,454 sq. ft. $133
2013-10-17 Single Family 19128 Meadow Pine Dr Tampa, FL 33647 $357,000 3,058 sq. ft. 5,663 sq. ft. $117
2013-10-15 Single Family 8314 Natchez St Tampa, FL 33637 $119,900 1,402 sq. ft. 4,792 sq. ft. $86
2013-10-14 Single Family Contemporary 18143 Regents Square Dr Tampa, FL 33647 $339,900 2,502 sq. ft. 9,148 sq. ft. $136
2013-10-14 Single Family 7324 Yardley Way Tampa, FL 33647 $199,900 2,039 sq. ft. 7,841 sq. ft. $98
2013-10-12 Single Family 18010 Java Isle Dr Tampa, FL 33647 $299,900 2,832 sq. ft. 8,276 sq. ft. $106
2013-10-10 Single Family Contemporary 8312 Windsor Bluff Dr Tampa, FL 33647 $389,999 3,170 sq. ft. 10,454 sq. ft. $123
2013-10-10 Single Family Tampa, FL 33613 $99,900 1,890 sq. ft. 9,148 sq. ft. $53
2013-10-08 Single Family 17947 Holly Brook Dr Tampa, FL 33647 $299,000 2,448 sq. ft. 9,148 sq. ft. $122
2013-10-08 Single Family Contemporary 17884 Arbor Greene Dr Tampa, FL 33647 $449,000 3,375 sq. ft. 20,038 sq. ft. $133
2013-10-04 Single Family 9337 Mandrake Ct Tampa, FL 33647 $289,900 3,389 sq. ft. 6,534 sq. ft. $86
2013-10-04 Single Family 8610 Egret Point Ct Tampa, FL 33647 $200,000 1,990 sq. ft. 7,405 sq. ft. $101
2013-10-01 Single Family 9432 Pebble Glen Ave Tampa, FL 33647 $175,000 1,868 sq. ft. 8,276 sq. ft. $94
2013-10-01 Single Family Contemporary 7203 Yardley Way Tampa, FL 33647 $264,999 2,137 sq. ft. 7,841 sq. ft. $124
2013-09-27 Single Family Florida 6417 Maclaurin Dr Tampa, FL 33647 $889,000 5,222 sq. ft. 43,996 sq. ft. $170
2013-09-27 Single Family Contemporary 18142 Bahama Bay Dr Tampa, FL 33647 $355,000 3,347 sq. ft. 7,841 sq. ft. $106
2013-09-26 Single Family Tampa, FL 33647 $189,000 2,042 sq. ft. 6,534 sq. ft. $93
2013-09-25 Single Family Contemporary 4207 Carrollwood Village Ct Tampa, FL 33618 $665,000 4,415 sq. ft. 29,621 sq. ft. $151
2013-09-24 Single Family Contemporary 3318 Handy Rd Tampa, FL 33618 $730,000 4,090 sq. ft. 29,185 sq. ft. $178
2013-09-24 Single Family Contemporary 8417 Dunham Station Dr Tampa, FL 33647 $437,900 2,514 sq. ft. 11,761 sq. ft. $174
2013-09-24 Single Family Contemporary 8421 Dunham Station Dr Tampa, FL 33647 $515,400 2,818 sq. ft. 11,761 sq. ft. $183
2013-09-24 Single Family Contemporary 8409 Dunham Station Dr Tampa, FL 33647 $510,900 4,076 sq. ft. 13,504 sq. ft. $125
2013-09-24 Single Family Contemporary 20107 Pond Spring Way Tampa, FL 33647 $553,420 3,441 sq. ft. 12,197 sq. ft. $161
2013-09-24 Single Family Contemporary 20109 Pond Spring Way Tampa, FL 33647 $635,900 4,306 sq. ft. 13,939 sq. ft. $148